sensor_id;sensor_type;location;lat;lon;timestamp;P1;durP1;ratioP1;P2;durP2;ratioP2
48667;SDS011;34453;52.198;5.004;2023-03-01T00:01:09;8.52;;;7.72;;
48667;SDS011;34453;52.198;5.004;2023-03-01T00:03:35;7.10;;;6.50;;
48667;SDS011;34453;52.198;5.004;2023-03-01T00:06:00;7.53;;;7.00;;
48667;SDS011;34453;52.198;5.004;2023-03-01T00:08:26;7.60;;;6.82;;
48667;SDS011;34453;52.198;5.004;2023-03-01T00:11:05;13.27;;;7.03;;
48667;SDS011;34453;52.198;5.004;2023-03-01T00:13:31;6.90;;;6.28;;
48667;SDS011;34453;52.198;5.004;2023-03-01T00:15:57;6.93;;;6.43;;
48667;SDS011;34453;52.198;5.004;2023-03-01T00:18:22;11.57;;;8.32;;
48667;SDS011;34453;52.198;5.004;2023-03-01T00:20:51;61.92;;;9.38;;
48667;SDS011;34453;52.198;5.004;2023-03-01T00:23:17;12.25;;;8.60;;
48667;SDS011;34453;52.198;5.004;2023-03-01T00:25:42;16.15;;;11.88;;
48667;SDS011;34453;52.198;5.004;2023-03-01T00:28:07;19.90;;;14.95;;
48667;SDS011;34453;52.198;5.004;2023-03-01T00:30:33;16.98;;;14.50;;
48667;SDS011;34453;52.198;5.004;2023-03-01T00:32:58;15.88;;;12.93;;
48667;SDS011;34453;52.198;5.004;2023-03-01T00:35:23;15.90;;;12.05;;
48667;SDS011;34453;52.198;5.004;2023-03-01T00:37:48;13.60;;;11.75;;
48667;SDS011;34453;52.198;5.004;2023-03-01T00:40:18;12.75;;;10.25;;
48667;SDS011;34453;52.198;5.004;2023-03-01T00:42:43;13.43;;;10.70;;
48667;SDS011;34453;52.198;5.004;2023-03-01T00:45:09;11.05;;;9.70;;
48667;SDS011;34453;52.198;5.004;2023-03-01T00:47:34;13.48;;;11.27;;
48667;SDS011;34453;52.198;5.004;2023-03-01T00:49:59;13.05;;;10.80;;
48667;SDS011;34453;52.198;5.004;2023-03-01T00:52:24;14.95;;;11.68;;
48667;SDS011;34453;52.198;5.004;2023-03-01T00:54:51;12.63;;;10.85;;
48667;SDS011;34453;52.198;5.004;2023-03-01T00:57:17;11.35;;;10.07;;
48667;SDS011;34453;52.198;5.004;2023-03-01T00:59:42;13.73;;;10.98;;
48667;SDS011;34453;52.198;5.004;2023-03-01T01:02:07;11.88;;;10.65;;
48667;SDS011;34453;52.198;5.004;2023-03-01T01:04:32;16.35;;;11.25;;
48667;SDS011;34453;52.198;5.004;2023-03-01T01:06:58;15.27;;;12.18;;
48667;SDS011;34453;52.198;5.004;2023-03-01T01:09:23;11.90;;;10.70;;
48667;SDS011;34453;52.198;5.004;2023-03-01T01:11:51;13.35;;;10.52;;
48667;SDS011;34453;52.198;5.004;2023-03-01T01:14:17;15.20;;;11.40;;
48667;SDS011;34453;52.198;5.004;2023-03-01T01:16:42;14.65;;;11.75;;
48667;SDS011;34453;52.198;5.004;2023-03-01T01:19:08;12.48;;;10.55;;
48667;SDS011;34453;52.198;5.004;2023-03-01T01:21:34;15.32;;;11.35;;
48667;SDS011;34453;52.198;5.004;2023-03-01T01:23:59;17.38;;;12.52;;
48667;SDS011;34453;52.198;5.004;2023-03-01T01:26:26;13.43;;;12.02;;
48667;SDS011;34453;52.198;5.004;2023-03-01T01:28:51;17.70;;;12.98;;
48667;SDS011;34453;52.198;5.004;2023-03-01T01:31:17;15.68;;;12.05;;
48667;SDS011;34453;52.198;5.004;2023-03-01T01:33:43;17.98;;;11.73;;
48667;SDS011;34453;52.198;5.004;2023-03-01T01:36:08;18.50;;;11.77;;
48667;SDS011;34453;52.198;5.004;2023-03-01T01:38:34;12.60;;;10.40;;
48667;SDS011;34453;52.198;5.004;2023-03-01T01:41:00;11.45;;;10.15;;
48667;SDS011;34453;52.198;5.004;2023-03-01T01:43:26;9.30;;;8.38;;
48667;SDS011;34453;52.198;5.004;2023-03-01T01:45:55;9.80;;;8.52;;
48667;SDS011;34453;52.198;5.004;2023-03-01T01:48:22;9.75;;;8.73;;
48667;SDS011;34453;52.198;5.004;2023-03-01T01:50:54;11.80;;;9.30;;
48667;SDS011;34453;52.198;5.004;2023-03-01T01:53:20;9.10;;;8.25;;
48667;SDS011;34453;52.198;5.004;2023-03-01T01:55:47;9.90;;;7.15;;
48667;SDS011;34453;52.198;5.004;2023-03-01T01:58:15;7.28;;;6.00;;
48667;SDS011;34453;52.198;5.004;2023-03-01T02:00:40;5.68;;;5.38;;
48667;SDS011;34453;52.198;5.004;2023-03-01T02:03:08;5.60;;;5.30;;
48667;SDS011;34453;52.198;5.004;2023-03-01T02:08:18;14.65;;;6.50;;
48667;SDS011;34453;52.198;5.004;2023-03-01T02:10:44;8.25;;;7.45;;
48667;SDS011;34453;52.198;5.004;2023-03-01T02:13:10;7.80;;;7.18;;
48667;SDS011;34453;52.198;5.004;2023-03-01T02:15:36;10.55;;;9.05;;
48667;SDS011;34453;52.198;5.004;2023-03-01T02:18:02;11.27;;;10.18;;
48667;SDS011;34453;52.198;5.004;2023-03-01T02:22:53;20.58;;;14.65;;
48667;SDS011;34453;52.198;5.004;2023-03-01T02:25:22;16.90;;;14.55;;
48667;SDS011;34453;52.198;5.004;2023-03-01T02:27:57;33.35;;;15.07;;
48667;SDS011;34453;52.198;5.004;2023-03-01T02:30:25;21.58;;;14.80;;
48667;SDS011;34453;52.198;5.004;2023-03-01T02:32:51;19.27;;;14.73;;
48667;SDS011;34453;52.198;5.004;2023-03-01T02:35:16;18.77;;;14.60;;
48667;SDS011;34453;52.198;5.004;2023-03-01T02:37:43;20.30;;;13.77;;
48667;SDS011;34453;52.198;5.004;2023-03-01T02:40:11;20.23;;;13.60;;
48667;SDS011;34453;52.198;5.004;2023-03-01T02:42:40;26.10;;;13.82;;
48667;SDS011;34453;52.198;5.004;2023-03-01T02:45:08;152.45;;;17.90;;
48667;SDS011;34453;52.198;5.004;2023-03-01T02:47:35;14.50;;;12.18;;
48667;SDS011;34453;52.198;5.004;2023-03-01T02:50:00;14.90;;;12.18;;
48667;SDS011;34453;52.198;5.004;2023-03-01T02:55:13;18.23;;;12.35;;
48667;SDS011;34453;52.198;5.004;2023-03-01T02:57:40;23.35;;;12.52;;
48667;SDS011;34453;52.198;5.004;2023-03-01T03:00:13;17.23;;;13.27;;
48667;SDS011;34453;52.198;5.004;2023-03-01T03:02:44;19.00;;;13.82;;
48667;SDS011;34453;52.198;5.004;2023-03-01T03:05:14;19.42;;;14.60;;
48667;SDS011;34453;52.198;5.004;2023-03-01T03:07:41;18.30;;;11.80;;
48667;SDS011;34453;52.198;5.004;2023-03-01T03:10:08;12.15;;;10.80;;
48667;SDS011;34453;52.198;5.004;2023-03-01T03:12:33;13.77;;;11.35;;
48667;SDS011;34453;52.198;5.004;2023-03-01T03:14:59;12.30;;;10.52;;
48667;SDS011;34453;52.198;5.004;2023-03-01T03:17:24;14.02;;;11.82;;
48667;SDS011;34453;52.198;5.004;2023-03-01T03:19:49;15.93;;;12.85;;
48667;SDS011;34453;52.198;5.004;2023-03-01T03:22:15;14.63;;;11.88;;
48667;SDS011;34453;52.198;5.004;2023-03-01T03:24:40;17.60;;;14.40;;
48667;SDS011;34453;52.198;5.004;2023-03-01T03:27:05;23.83;;;14.00;;
48667;SDS011;34453;52.198;5.004;2023-03-01T03:29:31;20.13;;;12.80;;
48667;SDS011;34453;52.198;5.004;2023-03-01T03:31:57;15.23;;;12.68;;
48667;SDS011;34453;52.198;5.004;2023-03-01T03:34:22;14.05;;;11.90;;
48667;SDS011;34453;52.198;5.004;2023-03-01T03:36:48;21.88;;;12.55;;
48667;SDS011;34453;52.198;5.004;2023-03-01T03:39:13;16.75;;;12.57;;
48667;SDS011;34453;52.198;5.004;2023-03-01T03:41:38;18.13;;;13.07;;
48667;SDS011;34453;52.198;5.004;2023-03-01T03:44:04;19.83;;;15.23;;
48667;SDS011;34453;52.198;5.004;2023-03-01T03:46:29;21.27;;;15.10;;
48667;SDS011;34453;52.198;5.004;2023-03-01T03:48:55;22.00;;;15.82;;
48667;SDS011;34453;52.198;5.004;2023-03-01T03:51:20;20.48;;;15.10;;
48667;SDS011;34453;52.198;5.004;2023-03-01T03:53:47;22.17;;;15.60;;
48667;SDS011;34453;52.198;5.004;2023-03-01T03:56:13;21.23;;;15.02;;
48667;SDS011;34453;52.198;5.004;2023-03-01T03:58:38;26.33;;;16.38;;
48667;SDS011;34453;52.198;5.004;2023-03-01T04:01:03;23.30;;;16.77;;
48667;SDS011;34453;52.198;5.004;2023-03-01T04:03:29;23.00;;;16.20;;
48667;SDS011;34453;52.198;5.004;2023-03-01T04:05:56;26.58;;;16.13;;
48667;SDS011;34453;52.198;5.004;2023-03-01T04:08:22;21.02;;;15.50;;
48667;SDS011;34453;52.198;5.004;2023-03-01T04:10:49;24.30;;;16.23;;
48667;SDS011;34453;52.198;5.004;2023-03-01T04:13:16;17.38;;;13.05;;
48667;SDS011;34453;52.198;5.004;2023-03-01T04:15:41;24.60;;;16.88;;
48667;SDS011;34453;52.198;5.004;2023-03-01T04:18:13;23.13;;;16.63;;
48667;SDS011;34453;52.198;5.004;2023-03-01T04:20:38;23.58;;;16.08;;
48667;SDS011;34453;52.198;5.004;2023-03-01T04:23:14;29.05;;;16.73;;
48667;SDS011;34453;52.198;5.004;2023-03-01T04:25:41;27.33;;;16.35;;
48667;SDS011;34453;52.198;5.004;2023-03-01T04:28:07;25.90;;;17.05;;
48667;SDS011;34453;52.198;5.004;2023-03-01T04:30:33;21.60;;;15.65;;
48667;SDS011;34453;52.198;5.004;2023-03-01T04:33:10;22.73;;;15.88;;
48667;SDS011;34453;52.198;5.004;2023-03-01T04:35:35;23.90;;;15.55;;
48667;SDS011;34453;52.198;5.004;2023-03-01T04:38:01;22.02;;;16.73;;
48667;SDS011;34453;52.198;5.004;2023-03-01T04:40:26;20.23;;;14.45;;
48667;SDS011;34453;52.198;5.004;2023-03-01T04:42:52;18.48;;;13.23;;
48667;SDS011;34453;52.198;5.004;2023-03-01T04:45:17;10.05;;;8.98;;
48667;SDS011;34453;52.198;5.004;2023-03-01T04:47:43;12.18;;;10.88;;
48667;SDS011;34453;52.198;5.004;2023-03-01T04:50:09;14.52;;;12.23;;
48667;SDS011;34453;52.198;5.004;2023-03-01T04:52:35;13.40;;;11.98;;
48667;SDS011;34453;52.198;5.004;2023-03-01T04:55:01;14.52;;;11.77;;
48667;SDS011;34453;52.198;5.004;2023-03-01T04:57:26;12.75;;;11.05;;
48667;SDS011;34453;52.198;5.004;2023-03-01T04:59:51;15.38;;;11.20;;
48667;SDS011;34453;52.198;5.004;2023-03-01T05:02:16;16.70;;;10.63;;
48667;SDS011;34453;52.198;5.004;2023-03-01T05:04:42;10.73;;;9.63;;
48667;SDS011;34453;52.198;5.004;2023-03-01T05:07:07;7.40;;;6.75;;
48667;SDS011;34453;52.198;5.004;2023-03-01T05:09:32;5.60;;;5.20;;
48667;SDS011;34453;52.198;5.004;2023-03-01T05:11:57;6.90;;;6.30;;
48667;SDS011;34453;52.198;5.004;2023-03-01T05:14:23;6.32;;;5.93;;
48667;SDS011;34453;52.198;5.004;2023-03-01T05:16:48;6.35;;;5.85;;
48667;SDS011;34453;52.198;5.004;2023-03-01T05:19:13;8.30;;;7.60;;
48667;SDS011;34453;52.198;5.004;2023-03-01T05:21:42;10.73;;;9.40;;
48667;SDS011;34453;52.198;5.004;2023-03-01T05:24:26;15.82;;;10.90;;
48667;SDS011;34453;52.198;5.004;2023-03-01T05:26:52;14.10;;;12.00;;
48667;SDS011;34453;52.198;5.004;2023-03-01T05:29:18;17.20;;;12.93;;
48667;SDS011;34453;52.198;5.004;2023-03-01T05:31:50;14.43;;;11.95;;
48667;SDS011;34453;52.198;5.004;2023-03-01T05:34:15;10.68;;;9.45;;
48667;SDS011;34453;52.198;5.004;2023-03-01T05:36:41;15.82;;;10.60;;
48667;SDS011;34453;52.198;5.004;2023-03-01T05:39:06;15.70;;;11.25;;
48667;SDS011;34453;52.198;5.004;2023-03-01T05:41:31;13.65;;;10.57;;
48667;SDS011;34453;52.198;5.004;2023-03-01T05:43:56;15.18;;;11.32;;
48667;SDS011;34453;52.198;5.004;2023-03-01T05:46:22;15.20;;;11.48;;
48667;SDS011;34453;52.198;5.004;2023-03-01T05:48:49;14.13;;;11.70;;
48667;SDS011;34453;52.198;5.004;2023-03-01T05:51:14;15.98;;;13.20;;
48667;SDS011;34453;52.198;5.004;2023-03-01T05:53:39;18.38;;;13.73;;
48667;SDS011;34453;52.198;5.004;2023-03-01T05:56:05;20.95;;;14.25;;
48667;SDS011;34453;52.198;5.004;2023-03-01T05:58:31;20.08;;;13.85;;
48667;SDS011;34453;52.198;5.004;2023-03-01T06:00:56;18.00;;;13.20;;
48667;SDS011;34453;52.198;5.004;2023-03-01T06:03:21;20.00;;;13.23;;
48667;SDS011;34453;52.198;5.004;2023-03-01T06:05:47;15.65;;;12.00;;
48667;SDS011;34453;52.198;5.004;2023-03-01T06:08:12;17.58;;;12.93;;
48667;SDS011;34453;52.198;5.004;2023-03-01T06:10:37;17.23;;;12.75;;
48667;SDS011;34453;52.198;5.004;2023-03-01T06:13:03;19.48;;;13.80;;
48667;SDS011;34453;52.198;5.004;2023-03-01T06:15:28;20.88;;;14.13;;
48667;SDS011;34453;52.198;5.004;2023-03-01T06:17:54;19.20;;;13.88;;
48667;SDS011;34453;52.198;5.004;2023-03-01T06:20:22;22.23;;;15.07;;
48667;SDS011;34453;52.198;5.004;2023-03-01T06:22:48;21.05;;;14.75;;
48667;SDS011;34453;52.198;5.004;2023-03-01T06:25:15;17.98;;;13.43;;
48667;SDS011;34453;52.198;5.004;2023-03-01T06:27:41;14.40;;;12.15;;
48667;SDS011;34453;52.198;5.004;2023-03-01T06:30:07;20.55;;;13.98;;
48667;SDS011;34453;52.198;5.004;2023-03-01T06:32:32;21.08;;;15.15;;
48667;SDS011;34453;52.198;5.004;2023-03-01T06:34:58;17.52;;;13.63;;
48667;SDS011;34453;52.198;5.004;2023-03-01T06:37:24;19.65;;;14.68;;
48667;SDS011;34453;52.198;5.004;2023-03-01T06:39:49;18.13;;;12.82;;
48667;SDS011;34453;52.198;5.004;2023-03-01T06:42:14;22.00;;;15.48;;
48667;SDS011;34453;52.198;5.004;2023-03-01T06:44:39;23.05;;;14.65;;
48667;SDS011;34453;52.198;5.004;2023-03-01T06:47:05;20.73;;;14.93;;
48667;SDS011;34453;52.198;5.004;2023-03-01T06:49:30;21.50;;;14.38;;
48667;SDS011;34453;52.198;5.004;2023-03-01T06:51:56;19.92;;;13.70;;
48667;SDS011;34453;52.198;5.004;2023-03-01T06:54:21;17.58;;;12.55;;
48667;SDS011;34453;52.198;5.004;2023-03-01T06:56:50;19.55;;;14.05;;
48667;SDS011;34453;52.198;5.004;2023-03-01T06:59:15;25.95;;;16.60;;
48667;SDS011;34453;52.198;5.004;2023-03-01T07:01:40;19.15;;;14.50;;
48667;SDS011;34453;52.198;5.004;2023-03-01T07:04:06;19.83;;;14.43;;
48667;SDS011;34453;52.198;5.004;2023-03-01T07:06:32;17.63;;;13.30;;
48667;SDS011;34453;52.198;5.004;2023-03-01T07:08:57;24.60;;;14.57;;
48667;SDS011;34453;52.198;5.004;2023-03-01T07:11:22;19.15;;;13.68;;
48667;SDS011;34453;52.198;5.004;2023-03-01T07:13:48;20.58;;;14.68;;
48667;SDS011;34453;52.198;5.004;2023-03-01T07:16:13;21.73;;;13.80;;
48667;SDS011;34453;52.198;5.004;2023-03-01T07:18:39;18.38;;;12.32;;
48667;SDS011;34453;52.198;5.004;2023-03-01T07:21:06;18.30;;;13.05;;
48667;SDS011;34453;52.198;5.004;2023-03-01T07:37:59;23.33;;;16.48;;
48667;SDS011;34453;52.198;5.004;2023-03-01T07:40:26;20.30;;;15.70;;
48667;SDS011;34453;52.198;5.004;2023-03-01T07:42:55;17.98;;;14.38;;
48667;SDS011;34453;52.198;5.004;2023-03-01T07:45:21;23.02;;;16.48;;
48667;SDS011;34453;52.198;5.004;2023-03-01T07:47:46;25.75;;;15.73;;
48667;SDS011;34453;52.198;5.004;2023-03-01T07:50:12;21.33;;;14.98;;
48667;SDS011;34453;52.198;5.004;2023-03-01T07:52:38;30.45;;;16.17;;
48667;SDS011;34453;52.198;5.004;2023-03-01T07:55:04;20.67;;;15.50;;
48667;SDS011;34453;52.198;5.004;2023-03-01T07:57:30;25.15;;;16.05;;
48667;SDS011;34453;52.198;5.004;2023-03-01T07:59:56;21.52;;;15.88;;
48667;SDS011;34453;52.198;5.004;2023-03-01T08:02:22;26.50;;;16.75;;
48667;SDS011;34453;52.198;5.004;2023-03-01T08:04:47;26.83;;;18.30;;
48667;SDS011;34453;52.198;5.004;2023-03-01T08:07:13;29.50;;;20.17;;
48667;SDS011;34453;52.198;5.004;2023-03-01T08:09:38;34.67;;;22.08;;
48667;SDS011;34453;52.198;5.004;2023-03-01T08:12:04;35.50;;;23.48;;
48667;SDS011;34453;52.198;5.004;2023-03-01T08:14:33;41.28;;;24.00;;
48667;SDS011;34453;52.198;5.004;2023-03-01T08:16:59;40.75;;;24.42;;
48667;SDS011;34453;52.198;5.004;2023-03-01T08:19:24;38.47;;;23.75;;
48667;SDS011;34453;52.198;5.004;2023-03-01T08:21:50;38.42;;;24.40;;
48667;SDS011;34453;52.198;5.004;2023-03-01T08:24:15;36.00;;;23.90;;
48667;SDS011;34453;52.198;5.004;2023-03-01T08:26:41;40.13;;;27.30;;
48667;SDS011;34453;52.198;5.004;2023-03-01T08:29:06;38.08;;;25.25;;
48667;SDS011;34453;52.198;5.004;2023-03-01T08:31:33;37.80;;;25.38;;
48667;SDS011;34453;52.198;5.004;2023-03-01T08:34:04;38.47;;;25.15;;
48667;SDS011;34453;52.198;5.004;2023-03-01T08:36:33;42.13;;;26.10;;
48667;SDS011;34453;52.198;5.004;2023-03-01T08:39:02;43.65;;;26.63;;
48667;SDS011;34453;52.198;5.004;2023-03-01T08:41:27;38.20;;;25.38;;
48667;SDS011;34453;52.198;5.004;2023-03-01T08:43:53;38.53;;;25.98;;
48667;SDS011;34453;52.198;5.004;2023-03-01T08:46:23;38.15;;;24.77;;
48667;SDS011;34453;52.198;5.004;2023-03-01T08:49:14;37.75;;;22.83;;
48667;SDS011;34453;52.198;5.004;2023-03-01T08:51:41;28.63;;;20.13;;
48667;SDS011;34453;52.198;5.004;2023-03-01T08:54:09;28.15;;;18.25;;
48667;SDS011;34453;52.198;5.004;2023-03-01T08:56:37;25.02;;;18.10;;
48667;SDS011;34453;52.198;5.004;2023-03-01T08:59:03;26.13;;;18.05;;
48667;SDS011;34453;52.198;5.004;2023-03-01T09:01:29;26.20;;;17.23;;
48667;SDS011;34453;52.198;5.004;2023-03-01T09:03:54;23.52;;;16.23;;
48667;SDS011;34453;52.198;5.004;2023-03-01T09:06:20;21.27;;;15.10;;
48667;SDS011;34453;52.198;5.004;2023-03-01T09:08:46;20.90;;;15.10;;
48667;SDS011;34453;52.198;5.004;2023-03-01T09:11:14;13.18;;;11.90;;
48667;SDS011;34453;52.198;5.004;2023-03-01T09:13:42;14.57;;;11.20;;
48667;SDS011;34453;52.198;5.004;2023-03-01T09:16:10;15.30;;;11.40;;
48667;SDS011;34453;52.198;5.004;2023-03-01T09:18:37;16.95;;;13.10;;
48667;SDS011;34453;52.198;5.004;2023-03-01T09:21:06;15.50;;;12.50;;
48667;SDS011;34453;52.198;5.004;2023-03-01T09:23:40;13.88;;;10.82;;
48667;SDS011;34453;52.198;5.004;2023-03-01T09:26:10;13.77;;;12.18;;
48667;SDS011;34453;52.198;5.004;2023-03-01T09:28:37;10.35;;;9.38;;
48667;SDS011;34453;52.198;5.004;2023-03-01T09:31:03;11.32;;;9.32;;
48667;SDS011;34453;52.198;5.004;2023-03-01T09:33:30;13.27;;;10.80;;
48667;SDS011;34453;52.198;5.004;2023-03-01T09:35:57;15.07;;;10.68;;
48667;SDS011;34453;52.198;5.004;2023-03-01T09:38:23;18.33;;;10.35;;
48667;SDS011;34453;52.198;5.004;2023-03-01T09:40:48;12.38;;;10.02;;
48667;SDS011;34453;52.198;5.004;2023-03-01T09:45:46;14.77;;;10.68;;
48667;SDS011;34453;52.198;5.004;2023-03-01T09:48:18;18.30;;;12.25;;
48667;SDS011;34453;52.198;5.004;2023-03-01T09:50:49;13.52;;;11.13;;
48667;SDS011;34453;52.198;5.004;2023-03-01T09:53:17;14.77;;;12.05;;
48667;SDS011;34453;52.198;5.004;2023-03-01T09:55:54;18.52;;;11.77;;
48667;SDS011;34453;52.198;5.004;2023-03-01T10:01:55;16.20;;;10.13;;
48667;SDS011;34453;52.198;5.004;2023-03-01T10:09:36;17.27;;;11.95;;
48667;SDS011;34453;52.198;5.004;2023-03-01T10:12:10;14.73;;;12.35;;
48667;SDS011;34453;52.198;5.004;2023-03-01T10:17:35;20.35;;;11.32;;
48667;SDS011;34453;52.198;5.004;2023-03-01T10:20:24;16.35;;;11.18;;
48667;SDS011;34453;52.198;5.004;2023-03-01T10:23:03;16.83;;;9.40;;
48667;SDS011;34453;52.198;5.004;2023-03-01T10:28:10;15.18;;;8.85;;
48667;SDS011;34453;52.198;5.004;2023-03-01T10:30:43;9.30;;;8.30;;
48667;SDS011;34453;52.198;5.004;2023-03-01T10:33:13;11.88;;;8.70;;
48667;SDS011;34453;52.198;5.004;2023-03-01T10:35:39;11.00;;;8.32;;
48667;SDS011;34453;52.198;5.004;2023-03-01T10:38:07;9.75;;;8.25;;
48667;SDS011;34453;52.198;5.004;2023-03-01T10:40:34;9.15;;;7.43;;
48667;SDS011;34453;52.198;5.004;2023-03-01T10:43:05;11.27;;;8.60;;
48667;SDS011;34453;52.198;5.004;2023-03-01T10:45:35;7.93;;;7.22;;
48667;SDS011;34453;52.198;5.004;2023-03-01T10:48:21;7.23;;;6.57;;
48667;SDS011;34453;52.198;5.004;2023-03-01T10:51:03;10.32;;;8.30;;
48667;SDS011;34453;52.198;5.004;2023-03-01T10:56:11;14.98;;;7.15;;
48667;SDS011;34453;52.198;5.004;2023-03-01T10:58:39;7.40;;;6.70;;
48667;SDS011;34453;52.198;5.004;2023-03-01T11:06:36;6.35;;;5.07;;
48667;SDS011;34453;52.198;5.004;2023-03-01T11:09:22;5.95;;;5.53;;
48667;SDS011;34453;52.198;5.004;2023-03-01T11:11:53;5.40;;;5.00;;
48667;SDS011;34453;52.198;5.004;2023-03-01T11:14:23;6.18;;;5.57;;
48667;SDS011;34453;52.198;5.004;2023-03-01T11:17:12;6.15;;;5.65;;
48667;SDS011;34453;52.198;5.004;2023-03-01T11:19:38;5.97;;;5.45;;
48667;SDS011;34453;52.198;5.004;2023-03-01T11:22:12;8.75;;;5.68;;
48667;SDS011;34453;52.198;5.004;2023-03-01T11:27:16;5.57;;;5.07;;
48667;SDS011;34453;52.198;5.004;2023-03-01T11:29:45;4.95;;;4.43;;
48667;SDS011;34453;52.198;5.004;2023-03-01T11:32:16;8.30;;;5.25;;
48667;SDS011;34453;52.198;5.004;2023-03-01T11:34:52;11.43;;;5.40;;
48667;SDS011;34453;52.198;5.004;2023-03-01T11:37:55;5.85;;;5.25;;
48667;SDS011;34453;52.198;5.004;2023-03-01T11:43:29;5.50;;;4.97;;
48667;SDS011;34453;52.198;5.004;2023-03-01T12:08:33;9.02;;;4.63;;
48667;SDS011;34453;52.198;5.004;2023-03-01T12:34:15;9.63;;;4.78;;
48667;SDS011;34453;52.198;5.004;2023-03-01T12:45:30;7.18;;;5.38;;
48667;SDS011;34453;52.198;5.004;2023-03-01T12:50:28;5.40;;;4.90;;
48667;SDS011;34453;52.198;5.004;2023-03-01T12:55:57;7.57;;;4.45;;
48667;SDS011;34453;52.198;5.004;2023-03-01T13:04:02;8.05;;;5.03;;
48667;SDS011;34453;52.198;5.004;2023-03-01T13:11:49;9.48;;;6.45;;
48667;SDS011;34453;52.198;5.004;2023-03-01T13:16:48;5.13;;;4.35;;
48667;SDS011;34453;52.198;5.004;2023-03-01T13:19:18;4.70;;;4.30;;
48667;SDS011;34453;52.198;5.004;2023-03-01T13:21:47;4.72;;;4.43;;
48667;SDS011;34453;52.198;5.004;2023-03-01T13:29:49;4.35;;;3.97;;
48667;SDS011;34453;52.198;5.004;2023-03-01T13:32:27;5.82;;;3.95;;
48667;SDS011;34453;52.198;5.004;2023-03-01T13:37:40;4.07;;;3.75;;
48667;SDS011;34453;52.198;5.004;2023-03-01T13:42:54;7.10;;;4.20;;
48667;SDS011;34453;52.198;5.004;2023-03-01T13:45:22;6.80;;;3.50;;
48667;SDS011;34453;52.198;5.004;2023-03-01T13:47:58;4.00;;;3.80;;
48667;SDS011;34453;52.198;5.004;2023-03-01T13:50:29;6.00;;;4.13;;
48667;SDS011;34453;52.198;5.004;2023-03-01T13:53:03;4.18;;;3.88;;
48667;SDS011;34453;52.198;5.004;2023-03-01T13:58:16;4.95;;;3.55;;
48667;SDS011;34453;52.198;5.004;2023-03-01T14:00:54;3.50;;;3.20;;
48667;SDS011;34453;52.198;5.004;2023-03-01T14:03:21;8.13;;;3.92;;
48667;SDS011;34453;52.198;5.004;2023-03-01T14:08:33;3.97;;;3.67;;
48667;SDS011;34453;52.198;5.004;2023-03-01T14:21:59;5.97;;;3.80;;
48667;SDS011;34453;52.198;5.004;2023-03-01T14:24:28;3.55;;;3.25;;
48667;SDS011;34453;52.198;5.004;2023-03-01T14:26:57;4.55;;;4.22;;
48667;SDS011;34453;52.198;5.004;2023-03-01T14:29:26;3.70;;;3.40;;
48667;SDS011;34453;52.198;5.004;2023-03-01T14:32:17;4.03;;;3.72;;
48667;SDS011;34453;52.198;5.004;2023-03-01T14:34:45;4.30;;;3.90;;
48667;SDS011;34453;52.198;5.004;2023-03-01T14:37:18;4.43;;;4.07;;
48667;SDS011;34453;52.198;5.004;2023-03-01T14:39:49;4.22;;;3.60;;
48667;SDS011;34453;52.198;5.004;2023-03-01T14:42:15;5.55;;;3.63;;
48667;SDS011;34453;52.198;5.004;2023-03-01T14:44:45;5.43;;;3.95;;
48667;SDS011;34453;52.198;5.004;2023-03-01T14:47:14;4.72;;;4.15;;
48667;SDS011;34453;52.198;5.004;2023-03-01T14:49:44;3.78;;;3.53;;
48667;SDS011;34453;52.198;5.004;2023-03-01T14:52:21;6.68;;;3.58;;
48667;SDS011;34453;52.198;5.004;2023-03-01T14:54:51;8.52;;;4.10;;
48667;SDS011;34453;52.198;5.004;2023-03-01T14:59:47;5.57;;;4.53;;
48667;SDS011;34453;52.198;5.004;2023-03-01T15:02:17;7.05;;;4.50;;
48667;SDS011;34453;52.198;5.004;2023-03-01T15:04:45;4.80;;;4.20;;
48667;SDS011;34453;52.198;5.004;2023-03-01T15:07:13;4.30;;;3.90;;
48667;SDS011;34453;52.198;5.004;2023-03-01T15:09:39;4.65;;;3.72;;
48667;SDS011;34453;52.198;5.004;2023-03-01T15:15:01;4.38;;;3.97;;
48667;SDS011;34453;52.198;5.004;2023-03-01T15:17:43;5.10;;;4.38;;
48667;SDS011;34453;52.198;5.004;2023-03-01T15:20:15;4.60;;;4.20;;
48667;SDS011;34453;52.198;5.004;2023-03-01T15:22:45;4.10;;;3.80;;
48667;SDS011;34453;52.198;5.004;2023-03-01T15:25:14;4.60;;;4.30;;
48667;SDS011;34453;52.198;5.004;2023-03-01T15:27:45;4.70;;;4.22;;
48667;SDS011;34453;52.198;5.004;2023-03-01T15:30:19;4.05;;;3.70;;
48667;SDS011;34453;52.198;5.004;2023-03-01T15:32:47;5.15;;;4.68;;
48667;SDS011;34453;52.198;5.004;2023-03-01T15:40:52;5.45;;;4.13;;
48667;SDS011;34453;52.198;5.004;2023-03-01T15:43:37;4.88;;;4.47;;
48667;SDS011;34453;52.198;5.004;2023-03-01T15:46:05;4.78;;;4.38;;
48667;SDS011;34453;52.198;5.004;2023-03-01T15:48:37;4.82;;;4.35;;
48667;SDS011;34453;52.198;5.004;2023-03-01T15:51:03;4.97;;;4.57;;
48667;SDS011;34453;52.198;5.004;2023-03-01T15:53:28;5.30;;;4.70;;
48667;SDS011;34453;52.198;5.004;2023-03-01T15:55:54;5.85;;;4.25;;
48667;SDS011;34453;52.198;5.004;2023-03-01T15:58:20;4.72;;;3.80;;
48667;SDS011;34453;52.198;5.004;2023-03-01T16:00:49;4.00;;;3.80;;
48667;SDS011;34453;52.198;5.004;2023-03-01T16:03:20;4.78;;;4.47;;
48667;SDS011;34453;52.198;5.004;2023-03-01T16:05:48;4.22;;;3.92;;
48667;SDS011;34453;52.198;5.004;2023-03-01T16:08:15;5.05;;;4.45;;
48667;SDS011;34453;52.198;5.004;2023-03-01T16:10:41;4.90;;;4.45;;
48667;SDS011;34453;52.198;5.004;2023-03-01T16:13:10;5.43;;;4.93;;
48667;SDS011;34453;52.198;5.004;2023-03-01T16:15:39;4.32;;;4.03;;
48667;SDS011;34453;52.198;5.004;2023-03-01T16:18:05;4.43;;;4.07;;
48667;SDS011;34453;52.198;5.004;2023-03-01T16:20:32;4.28;;;3.70;;
48667;SDS011;34453;52.198;5.004;2023-03-01T16:22:59;4.97;;;4.40;;
48667;SDS011;34453;52.198;5.004;2023-03-01T16:25:26;6.72;;;4.28;;
48667;SDS011;34453;52.198;5.004;2023-03-01T16:27:52;4.55;;;4.20;;
48667;SDS011;34453;52.198;5.004;2023-03-01T16:30:18;4.72;;;4.13;;
48667;SDS011;34453;52.198;5.004;2023-03-01T16:32:46;5.05;;;4.57;;
48667;SDS011;34453;52.198;5.004;2023-03-01T16:35:15;4.57;;;4.20;;
48667;SDS011;34453;52.198;5.004;2023-03-01T16:37:42;6.63;;;6.03;;
48667;SDS011;34453;52.198;5.004;2023-03-01T16:40:18;6.68;;;5.07;;
48667;SDS011;34453;52.198;5.004;2023-03-01T16:42:52;4.68;;;4.22;;
48667;SDS011;34453;52.198;5.004;2023-03-01T16:45:18;7.35;;;4.88;;
48667;SDS011;34453;52.198;5.004;2023-03-01T16:47:44;5.68;;;5.03;;
48667;SDS011;34453;52.198;5.004;2023-03-01T16:50:10;6.97;;;4.93;;
48667;SDS011;34453;52.198;5.004;2023-03-01T16:52:36;5.90;;;5.15;;
48667;SDS011;34453;52.198;5.004;2023-03-01T16:55:02;5.13;;;4.72;;
48667;SDS011;34453;52.198;5.004;2023-03-01T16:57:29;5.35;;;4.50;;
48667;SDS011;34453;52.198;5.004;2023-03-01T16:59:55;5.10;;;4.68;;
48667;SDS011;34453;52.198;5.004;2023-03-01T17:02:20;5.55;;;5.05;;
48667;SDS011;34453;52.198;5.004;2023-03-01T17:04:53;5.80;;;5.05;;
48667;SDS011;34453;52.198;5.004;2023-03-01T17:07:19;6.43;;;5.45;;
48667;SDS011;34453;52.198;5.004;2023-03-01T17:09:45;5.32;;;4.95;;
48667;SDS011;34453;52.198;5.004;2023-03-01T17:12:14;5.43;;;4.88;;
48667;SDS011;34453;52.198;5.004;2023-03-01T17:14:40;5.38;;;4.90;;
48667;SDS011;34453;52.198;5.004;2023-03-01T17:17:09;5.20;;;4.70;;
48667;SDS011;34453;52.198;5.004;2023-03-01T17:19:35;6.75;;;4.78;;